Time;durP1;ratioP1;P1;durP2;ratioP2;P2;SDS_P1;SDS_P2;PMS_P1;PMS_P2;Temp;Humidity;BMP_temperature;BMP_pressure;BME280_temperature;BME280_humidity;BME280_pressure;Samples;Min_cycle;Max_cycle;Signal;HPM_P1;HPM_P2
2022/03/12 00:01:15;;;;;;;;;;;22.10;48.80;;;;;;5100127;28;1039;-39
2022/03/12 00:03:42;;;;;;;;;;;22.10;48.60;;;;;;5100659;28;1016;-39
2022/03/12 00:06:10;;;;;;;;;;;22.10;48.80;;;;;;5100184;28;892;-39
2022/03/12 00:08:42;;;;;;;;;;;22.10;48.60;;;;;;5099924;28;1860;-39
2022/03/12 00:11:10;;;;;;;;;;;22.00;48.70;;;;;;5100269;28;1091;-39
2022/03/12 00:13:37;;;;;;;;;;;22.00;48.60;;;;;;5100180;28;984;-38
2022/03/12 00:16:04;;;;;;;;;;;22.00;48.60;;;;;;5100132;28;1902;-39
2022/03/12 00:18:31;;;;;;;;;;;22.00;48.50;;;;;;5100088;28;994;-39
2022/03/12 00:21:02;;;;;;;;;;;22.10;48.70;;;;;;5099232;28;1198;-38
2022/03/12 00:23:30;;;;;;;;;;;22.10;48.80;;;;;;5099857;28;1029;-39
2022/03/12 00:25:58;;;;;;;;;;;22.10;48.70;;;;;;5100015;28;1002;-38
2022/03/12 00:28:26;;;;;;;;;;;22.10;48.80;;;;;;5097640;28;1007;-40
2022/03/12 00:30:52;;;;;;;;;;;22.10;48.80;;;;;;5099242;28;1010;-38
2022/03/12 00:33:19;;;;;;;;;;;22.00;48.40;;;;;;5099662;28;1003;-40
2022/03/12 00:35:46;;;;;;;;;;;22.00;48.80;;;;;;5099343;28;1985;-40
2022/03/12 00:38:14;;;;;;;;;;;22.00;48.70;;;;;;5099380;28;943;-40
2022/03/12 00:40:42;;;;;;;;;;;22.00;48.80;;;;;;5099358;28;1030;-40
2022/03/12 00:43:09;;;;;;;;;;;22.00;48.70;;;;;;5099841;28;992;-39
2022/03/12 00:45:36;;;;;;;;;;;22.00;48.60;;;;;;5099096;28;927;-39
2022/03/12 00:48:03;;;;;;;;;;;22.00;48.60;;;;;;5098680;28;1950;-39
2022/03/12 00:50:29;;;;;;;;;;;22.00;48.60;;;;;;5099432;28;1055;-38
2022/03/12 00:52:56;;;;;;;;;;;22.00;48.50;;;;;;5098854;28;968;-40
2022/03/12 00:55:23;;;;;;;;;;;22.00;48.50;;;;;;5098638;28;1898;-40
2022/03/12 00:57:51;;;;;;;;;;;22.00;48.50;;;;;;5098994;28;1061;-40
2022/03/12 01:00:19;;;;;;;;;;;22.00;48.50;;;;;;5098871;28;1017;-40
2022/03/12 01:02:46;;;;;;;;;;;22.00;48.50;;;;;;5099582;28;907;-40
2022/03/12 01:05:15;;;;;;;;;;;22.00;48.50;;;;;;5098623;28;979;-40
2022/03/12 01:07:42;;;;;;;;;;;22.00;48.60;;;;;;5098695;28;935;-40
2022/03/12 01:10:09;;;;;;;;;;;22.00;48.40;;;;;;5099082;28;989;-40
2022/03/12 01:12:36;;;;;;;;;;;22.00;48.50;;;;;;5098759;28;995;-40
2022/03/12 01:15:04;;;;;;;;;;;22.00;48.40;;;;;;5098373;28;1909;-39
2022/03/12 01:17:32;;;;;;;;;;;22.00;48.50;;;;;;5098469;28;939;-40
2022/03/12 01:20:00;;;;;;;;;;;22.00;48.40;;;;;;5098981;28;1023;-40
2022/03/12 01:22:29;;;;;;;;;;;22.00;48.40;;;;;;5098341;28;1078;-39
2022/03/12 01:24:56;;;;;;;;;;;22.00;48.40;;;;;;5098464;28;975;-40
2022/03/12 01:27:23;;;;;;;;;;;22.00;48.40;;;;;;5098199;28;1045;-39
2022/03/12 01:29:49;;;;;;;;;;;22.00;48.40;;;;;;5098225;28;1326;-40
2022/03/12 01:32:18;;;;;;;;;;;22.00;48.40;;;;;;5098369;28;935;-40
2022/03/12 01:34:45;;;;;;;;;;;22.00;48.40;;;;;;5097866;28;1894;-40
2022/03/12 01:37:14;;;;;;;;;;;22.00;48.50;;;;;;5098441;28;995;-40
2022/03/12 01:39:41;;;;;;;;;;;22.00;48.30;;;;;;5097919;28;991;-39
2022/03/12 01:42:09;;;;;;;;;;;22.10;48.30;;;;;;5098211;28;998;-40
2022/03/12 01:44:35;;;;;;;;;;;22.10;48.40;;;;;;5098050;28;986;-40
2022/03/12 01:47:07;;;;;;;;;;;22.10;48.30;;;;;;5097699;28;1225;-40
2022/03/12 01:49:37;;;;;;;;;;;22.10;48.10;;;;;;5098796;28;1011;-40
2022/03/12 01:52:05;;;;;;;;;;;22.10;48.10;;;;;;5098066;28;959;-40
2022/03/12 01:54:31;;;;;;;;;;;22.10;48.10;;;;;;5098064;28;1905;-40
2022/03/12 01:56:59;;;;;;;;;;;22.10;48.10;;;;;;5098491;28;931;-39
2022/03/12 01:59:25;;;;;;;;;;;22.10;48.10;;;;;;5099077;28;954;-40
2022/03/12 02:01:53;;;;;;;;;;;22.10;48.10;;;;;;5098655;28;1010;-39
2022/03/12 02:04:20;;;;;;;;;;;22.00;48.20;;;;;;5098383;28;1011;-39
2022/03/12 02:06:50;;;;;;;;;;;22.00;48.10;;;;;;5098622;28;1445;-39
2022/03/12 02:09:18;;;;;;;;;;;22.00;48.20;;;;;;5098756;28;956;-39
2022/03/12 02:11:50;;;;;;;;;;;22.00;48.30;;;;;;5099062;28;903;-40
2022/03/12 02:14:17;;;;;;;;;;;22.00;48.50;;;;;;5098547;28;871;-39
2022/03/12 02:16:46;;;;;;;;;;;22.00;48.40;;;;;;5098340;28;1947;-40
2022/03/12 02:19:12;;;;;;;;;;;22.00;48.40;;;;;;5097871;28;912;-39
2022/03/12 02:21:42;;;;;;;;;;;21.90;48.50;;;;;;5098396;28;972;-40
2022/03/12 02:24:11;;;;;;;;;;;22.00;48.50;;;;;;5097737;28;1014;-40
2022/03/12 02:26:41;;;;;;;;;;;21.90;48.40;;;;;;5097946;28;954;-40
2022/03/12 02:29:12;;;;;;;;;;;22.00;48.60;;;;;;5098560;28;1007;-40
2022/03/12 02:31:39;;;;;;;;;;;21.90;48.50;;;;;;5098005;28;937;-40
2022/03/12 02:34:06;;;;;;;;;;;21.90;48.50;;;;;;5098074;28;951;-39
2022/03/12 02:36:34;;;;;;;;;;;21.90;48.50;;;;;;5098128;28;1985;-40
2022/03/12 02:39:04;;;;;;;;;;;21.90;48.50;;;;;;5098383;28;1024;-40
2022/03/12 02:41:33;;;;;;;;;;;21.90;48.50;;;;;;5097870;28;944;-40
2022/03/12 02:43:59;;;;;;;;;;;21.90;48.50;;;;;;5097988;28;1005;-40
2022/03/12 02:46:29;;;;;;;;;;;21.90;48.50;;;;;;5098331;28;955;-40
2022/03/12 02:48:56;;;;;;;;;;;21.90;48.60;;;;;;5097921;28;1252;-39
2022/03/12 02:51:23;;;;;;;;;;;21.90;48.40;;;;;;5099597;28;943;-39
2022/03/12 02:53:51;;;;;;;;;;;21.90;48.60;;;;;;5101619;28;1044;-40
2022/03/12 02:56:19;;;;;;;;;;;21.90;48.60;;;;;;5101391;28;1979;-40
2022/03/12 02:58:47;;;;;;;;;;;21.90;48.50;;;;;;5101509;28;922;-39
2022/03/12 03:01:14;;;;;;;;;;;21.90;48.60;;;;;;5101284;28;1014;-40
2022/03/12 03:03:42;;;;;;;;;;;21.90;48.70;;;;;;5101491;28;940;-41
2022/03/12 03:06:09;;;;;;;;;;;21.90;48.60;;;;;;5101567;28;940;-40
2022/03/12 03:08:39;;;;;;;;;;;21.80;48.40;;;;;;5101207;28;1003;-40
2022/03/12 03:11:10;;;;;;;;;;;21.90;48.60;;;;;;5101716;28;912;-40
2022/03/12 03:13:38;;;;;;;;;;;21.90;48.50;;;;;;5101626;28;976;-40
2022/03/12 03:19:09;;;;;;;;;;;21.80;48.50;;;;;;5101021;28;871;-39
2022/03/12 03:21:37;;;;;;;;;;;21.80;48.50;;;;;;5101603;28;929;-39
2022/03/12 03:24:06;;;;;;;;;;;21.80;48.60;;;;;;5101169;28;930;-39
2022/03/12 03:26:50;;;;;;;;;;;21.80;48.60;;;;;;5100796;28;994;-41
2022/03/12 03:29:19;;;;;;;;;;;21.80;48.60;;;;;;5101429;28;927;-40
2022/03/12 03:31:46;;;;;;;;;;;21.80;48.60;;;;;;5100927;28;904;-40
2022/03/12 03:34:14;;;;;;;;;;;21.80;48.80;;;;;;5100488;28;983;-40
2022/03/12 03:36:40;;;;;;;;;;;21.80;48.80;;;;;;5100783;28;1981;-39
2022/03/12 03:39:07;;;;;;;;;;;21.80;48.60;;;;;;5100716;28;979;-40
2022/03/12 03:41:34;;;;;;;;;;;21.80;48.60;;;;;;5100656;28;947;-40
2022/03/12 03:44:01;;;;;;;;;;;21.80;48.80;;;;;;5100226;28;1773;-40
2022/03/12 03:46:28;;;;;;;;;;;21.80;48.80;;;;;;5100337;28;1033;-40
2022/03/12 03:48:55;;;;;;;;;;;21.80;48.70;;;;;;5100675;28;1190;-40
2022/03/12 03:51:23;;;;;;;;;;;21.80;48.60;;;;;;5101534;28;943;-40
2022/03/12 03:53:51;;;;;;;;;;;21.80;48.90;;;;;;5100221;28;1200;-40
2022/03/12 03:56:18;;;;;;;;;;;21.80;48.80;;;;;;5100296;28;1898;-40
2022/03/12 03:58:45;;;;;;;;;;;21.80;48.80;;;;;;5100399;28;983;-40
2022/03/12 04:01:13;;;;;;;;;;;21.80;48.80;;;;;;5100347;28;1464;-40
2022/03/12 04:03:42;;;;;;;;;;;21.80;48.60;;;;;;5100664;28;1034;-40
2022/03/12 04:06:09;;;;;;;;;;;21.80;48.70;;;;;;5100069;28;924;-39
2022/03/12 04:08:37;;;;;;;;;;;21.80;48.60;;;;;;5100251;28;982;-39
2022/03/12 04:11:05;;;;;;;;;;;21.80;48.70;;;;;;5099979;28;927;-40
2022/03/12 04:13:33;;;;;;;;;;;21.80;48.60;;;;;;5100083;28;884;-39
2022/03/12 04:16:00;;;;;;;;;;;21.70;48.70;;;;;;5100104;28;1903;-40
2022/03/12 04:18:27;;;;;;;;;;;21.80;48.60;;;;;;5100148;28;892;-42
2022/03/12 04:20:54;;;;;;;;;;;21.80;48.70;;;;;;5100362;28;1136;-40
2022/03/12 04:23:21;;;;;;;;;;;21.80;48.80;;;;;;5100087;28;2038;-38
2022/03/12 04:25:51;;;;;;;;;;;21.70;48.70;;;;;;5100250;28;995;-40
2022/03/12 04:28:18;;;;;;;;;;;21.80;48.60;;;;;;5100343;28;975;-40
2022/03/12 04:30:45;;;;;;;;;;;21.70;48.80;;;;;;5099753;28;995;-40
2022/03/12 04:33:13;;;;;;;;;;;21.70;48.80;;;;;;5099430;28;881;-39
2022/03/12 04:35:41;;;;;;;;;;;21.80;48.80;;;;;;5099647;28;1972;-40
2022/03/12 04:38:09;;;;;;;;;;;21.70;48.90;;;;;;5099850;28;996;-40
2022/03/12 04:40:37;;;;;;;;;;;21.70;48.70;;;;;;5100013;28;996;-40
2022/03/12 04:43:05;;;;;;;;;;;21.70;48.70;;;;;;5099273;28;1907;-40
2022/03/12 04:45:31;;;;;;;;;;;21.80;48.80;;;;;;5099434;28;986;-39
2022/03/12 04:47:58;;;;;;;;;;;21.70;48.70;;;;;;5099508;28;1135;-38
2022/03/12 04:50:25;;;;;;;;;;;21.80;48.70;;;;;;5099331;28;996;-39
2022/03/12 04:52:53;;;;;;;;;;;21.70;48.70;;;;;;5098981;28;1019;-39
2022/03/12 04:55:21;;;;;;;;;;;21.70;48.70;;;;;;5099010;28;1901;-40
2022/03/12 04:57:49;;;;;;;;;;;21.80;48.80;;;;;;5097680;28;976;-38
2022/03/12 05:00:19;;;;;;;;;;;21.70;48.70;;;;;;5098244;28;864;-40
2022/03/12 05:02:46;;;;;;;;;;;21.80;48.60;;;;;;5098927;28;1070;-39
2022/03/12 05:05:14;;;;;;;;;;;21.80;48.60;;;;;;5099085;28;988;-39
2022/03/12 05:07:43;;;;;;;;;;;21.80;48.70;;;;;;5098835;28;1050;-39
2022/03/12 05:10:10;;;;;;;;;;;21.80;48.70;;;;;;5098833;28;964;-40
2022/03/12 05:12:37;;;;;;;;;;;21.80;48.80;;;;;;5098652;28;924;-40
2022/03/12 05:15:05;;;;;;;;;;;21.70;48.60;;;;;;5098557;28;1026;-49
2022/03/12 05:17:38;;;;;;;;;;;21.70;48.60;;;;;;5099529;28;1909;-39
2022/03/12 05:20:07;;;;;;;;;;;21.70;48.60;;;;;;5099470;28;935;-40
2022/03/12 05:22:34;;;;;;;;;;;21.70;48.50;;;;;;5097953;28;1020;-40
2022/03/12 05:25:00;;;;;;;;;;;21.80;48.70;;;;;;5098809;28;995;-40
2022/03/12 05:27:27;;;;;;;;;;;21.80;48.60;;;;;;5098687;28;939;-40
2022/03/12 05:29:54;;;;;;;;;;;21.80;48.50;;;;;;5098669;28;1029;-40
2022/03/12 05:32:21;;;;;;;;;;;21.80;48.60;;;;;;5099077;28;912;-40
2022/03/12 05:34:49;;;;;;;;;;;21.70;48.50;;;;;;5099263;28;1022;-39
2022/03/12 05:37:20;;;;;;;;;;;21.70;48.70;;;;;;5097846;28;1910;-40
2022/03/12 05:39:46;;;;;;;;;;;21.80;48.60;;;;;;5098595;28;955;-40
2022/03/12 05:42:17;;;;;;;;;;;21.70;48.50;;;;;;5098954;28;1866;-39
2022/03/12 05:44:44;;;;;;;;;;;21.70;48.60;;;;;;5099104;28;1059;-39
2022/03/12 05:47:10;;;;;;;;;;;21.80;48.50;;;;;;5098055;28;1181;-39
2022/03/12 05:49:37;;;;;;;;;;;21.70;48.50;;;;;;5098784;28;901;-39
2022/03/12 05:52:10;;;;;;;;;;;21.70;48.60;;;;;;5098533;28;952;-47
2022/03/12 05:54:36;;;;;;;;;;;21.70;48.70;;;;;;5098093;28;1203;-38
2022/03/12 05:57:03;;;;;;;;;;;21.70;48.60;;;;;;5098253;28;1909;-37
2022/03/12 05:59:30;;;;;;;;;;;21.70;48.70;;;;;;5098585;28;991;-46
2022/03/12 06:01:57;;;;;;;;;;;21.70;48.60;;;;;;5098450;28;1501;-41
2022/03/12 06:04:27;;;;;;;;;;;21.70;48.70;;;;;;5098960;28;963;-40
2022/03/12 06:06:54;;;;;;;;;;;21.70;49.80;;;;;;5098298;28;940;-40
2022/03/12 06:09:22;;;;;;;;;;;21.70;48.60;;;;;;5098098;28;1003;-39
2022/03/12 06:11:52;;;;;;;;;;;21.70;48.70;;;;;;5098427;28;1018;-40
2022/03/12 06:14:18;;;;;;;;;;;21.70;48.60;;;;;;5098499;28;933;-40
2022/03/12 06:16:48;;;;;;;;;;;21.70;48.70;;;;;;5097253;28;1978;-41
2022/03/12 06:19:15;;;;;;;;;;;21.70;48.60;;;;;;5098281;28;1003;-39
2022/03/12 06:21:42;;;;;;;;;;;21.70;49.60;;;;;;5098927;28;976;-39
2022/03/12 06:24:09;;;;;;;;;;;21.70;48.40;;;;;;5098145;28;971;-39
2022/03/12 06:26:39;;;;;;;;;;;21.70;48.50;;;;;;5101369;28;1002;-40
2022/03/12 06:29:11;;;;;;;;;;;21.70;48.50;;;;;;5101960;28;1002;-40
2022/03/12 06:31:38;;;;;;;;;;;21.70;48.50;;;;;;5102318;28;931;-40
2022/03/12 06:34:05;;;;;;;;;;;21.70;48.50;;;;;;5102051;28;1155;-39
2022/03/12 06:36:32;;;;;;;;;;;21.70;48.50;;;;;;5100971;28;1910;-40
2022/03/12 06:38:59;;;;;;;;;;;21.70;48.50;;;;;;5102039;28;948;-45
2022/03/12 06:41:26;;;;;;;;;;;21.80;48.50;;;;;;5101280;28;968;-40
2022/03/12 06:43:56;;;;;;;;;;;21.70;48.40;;;;;;5100994;28;934;-40
2022/03/12 06:46:24;;;;;;;;;;;21.70;48.40;;;;;;5101027;28;1009;-40
2022/03/12 06:48:51;;;;;;;;;;;21.70;48.50;;;;;;5101282;28;1179;-39
2022/03/12 06:51:18;;;;;;;;;;;21.70;48.40;;;;;;5101510;28;992;-51
2022/03/12 06:53:45;;;;;;;;;;;21.70;48.50;;;;;;5100677;28;983;-40
2022/03/12 06:56:12;;;;;;;;;;;21.70;48.50;;;;;;5100879;28;2021;-40
2022/03/12 06:58:39;;;;;;;;;;;21.70;48.50;;;;;;5100618;28;943;-40
2022/03/12 07:01:07;;;;;;;;;;;21.70;48.50;;;;;;5101403;28;912;-39
2022/03/12 07:03:34;;;;;;;;;;;21.70;48.60;;;;;;5100486;28;988;-39
2022/03/12 07:06:00;;;;;;;;;;;21.70;48.50;;;;;;5100488;28;944;-41
2022/03/12 07:08:27;;;;;;;;;;;21.70;48.30;;;;;;5100954;28;1002;-40
2022/03/12 07:10:54;;;;;;;;;;;21.70;48.40;;;;;;5100767;28;1001;-40
2022/03/12 07:13:21;;;;;;;;;;;21.70;48.40;;;;;;5100691;28;861;-39
2022/03/12 07:15:47;;;;;;;;;;;21.70;48.40;;;;;;5101456;28;987;-39
2022/03/12 07:18:16;;;;;;;;;;;21.70;48.50;;;;;;5100459;28;2037;-37
2022/03/12 07:20:42;;;;;;;;;;;21.70;48.50;;;;;;5100690;28;980;-37
2022/03/12 07:23:09;;;;;;;;;;;21.70;48.20;;;;;;5100380;28;999;-37
2022/03/12 07:25:36;;;;;;;;;;;21.70;48.30;;;;;;5100312;28;1017;-38
2022/03/12 07:28:03;;;;;;;;;;;21.70;48.30;;;;;;5099422;28;920;-38
2022/03/12 07:30:31;;;;;;;;;;;21.70;48.30;;;;;;5100265;28;975;-35
2022/03/12 07:32:57;;;;;;;;;;;21.70;48.30;;;;;;5099625;28;991;-38
2022/03/12 07:35:27;;;;;;;;;;;21.70;48.30;;;;;;5099627;28;954;-37
2022/03/12 07:37:53;;;;;;;;;;;21.70;48.20;;;;;;5098079;28;1897;-37
2022/03/12 07:40:20;;;;;;;;;;;21.70;48.20;;;;;;5098376;28;1330;-39
2022/03/12 07:42:47;;;;;;;;;;;21.70;48.10;;;;;;5099021;28;994;-38
2022/03/12 07:45:15;;;;;;;;;;;21.70;48.10;;;;;;5100129;28;1025;-37
2022/03/12 07:47:41;;;;;;;;;;;21.70;48.00;;;;;;5098840;28;1196;-38
2022/03/12 07:50:09;;;;;;;;;;;21.70;48.10;;;;;;5099499;28;1027;-37
2022/03/12 07:52:38;;;;;;;;;;;21.90;57.80;;;;;;5099433;28;1075;-37
2022/03/12 07:55:06;;;;;;;;;;;21.90;56.30;;;;;;5098924;28;1015;-38
2022/03/12 07:57:33;;;;;;;;;;;21.90;56.40;;;;;;5099326;28;1918;-38
2022/03/12 08:00:00;;;;;;;;;;;21.80;56.10;;;;;;5099091;28;1035;-40
2022/03/12 08:02:27;;;;;;;;;;;21.90;56.60;;;;;;5099772;28;948;-47
2022/03/12 08:04:54;;;;;;;;;;;21.90;56.80;;;;;;5099514;28;1041;-40
2022/03/12 08:07:20;;;;;;;;;;;21.90;57.40;;;;;;5098795;28;935;-40
2022/03/12 08:09:55;;;;;;;;;;;21.80;56.70;;;;;;5098730;28;961;-41
2022/03/12 08:12:24;;;;;;;;;;;21.90;56.40;;;;;;5099088;28;1987;-36
2022/03/12 08:14:51;;;;;;;;;;;21.90;56.90;;;;;;5098923;28;1012;-44
2022/03/12 08:17:19;;;;;;;;;;;22.00;57.20;;;;;;5098059;28;1917;-43
2022/03/12 08:19:46;;;;;;;;;;;21.90;57.10;;;;;;5098691;28;1057;-42
2022/03/12 08:22:13;;;;;;;;;;;21.80;57.40;;;;;;5098361;28;947;-43
2022/03/12 08:24:40;;;;;;;;;;;21.80;57.60;;;;;;5098726;28;980;-43
2022/03/12 08:27:08;;;;;;;;;;;21.80;57.80;;;;;;5097375;28;955;-43
2022/03/12 08:29:35;;;;;;;;;;;21.80;58.00;;;;;;5097953;28;981;-44
2022/03/12 08:32:07;;;;;;;;;;;21.70;58.00;;;;;;5097894;28;1014;-44
2022/03/12 08:34:34;;;;;;;;;;;21.80;57.80;;;;;;5098899;28;1016;-44
2022/03/12 08:37:01;;;;;;;;;;;21.70;57.70;;;;;;5097474;28;1910;-44
2022/03/12 08:39:28;;;;;;;;;;;21.80;57.70;;;;;;5099007;28;987;-44
2022/03/12 08:41:55;;;;;;;;;;;21.80;57.60;;;;;;5097786;28;967;-43
2022/03/12 08:44:23;;;;;;;;;;;21.70;57.70;;;;;;5097599;28;1008;-42
2022/03/12 08:46:50;;;;;;;;;;;21.70;57.80;;;;;;5097532;28;1186;-42
2022/03/12 08:49:18;;;;;;;;;;;21.70;57.70;;;;;;5097177;28;912;-43
2022/03/12 08:51:44;;;;;;;;;;;21.70;57.80;;;;;;5098336;28;1029;-43
2022/03/12 08:54:11;;;;;;;;;;;21.70;57.90;;;;;;5097474;28;1233;-44
2022/03/12 08:56:38;;;;;;;;;;;21.70;57.70;;;;;;5097092;28;1902;-43
2022/03/12 08:59:05;;;;;;;;;;;21.70;57.40;;;;;;5097010;28;1045;-43
2022/03/12 09:01:34;;;;;;;;;;;21.70;57.50;;;;;;5096772;28;924;-43
2022/03/12 09:04:01;;;;;;;;;;;21.80;57.40;;;;;;5096910;28;1480;-43
2022/03/12 09:06:29;;;;;;;;;;;21.80;57.70;;;;;;5096745;28;968;-43
2022/03/12 09:08:58;;;;;;;;;;;21.80;57.80;;;;;;5096338;28;980;-43
2022/03/12 09:11:25;;;;;;;;;;;21.80;57.20;;;;;;5096137;28;1809;-44
2022/03/12 09:13:52;;;;;;;;;;;21.80;57.40;;;;;;5095587;28;937;-44
2022/03/12 09:16:19;;;;;;;;;;;21.80;57.10;;;;;;5095561;28;988;-43
2022/03/12 09:18:47;;;;;;;;;;;21.80;56.90;;;;;;5096182;28;1977;-49
2022/03/12 09:21:14;;;;;;;;;;;21.90;57.00;;;;;;5096394;28;973;-44
2022/03/12 09:23:41;;;;;;;;;;;21.90;56.80;;;;;;5096144;28;977;-41
2022/03/12 09:26:08;;;;;;;;;;;21.90;56.70;;;;;;5093381;28;1042;-43
2022/03/12 09:28:35;;;;;;;;;;;21.90;56.20;;;;;;5097346;28;936;-36
2022/03/12 09:31:04;;;;;;;;;;;21.90;56.50;;;;;;5096231;28;952;-35
2022/03/12 09:33:31;;;;;;;;;;;22.00;56.30;;;;;;5095552;28;2011;-35
2022/03/12 09:35:59;;;;;;;;;;;22.00;56.30;;;;;;5095713;28;1108;-35
2022/03/12 09:38:26;;;;;;;;;;;22.00;56.40;;;;;;5095624;28;1902;-35
2022/03/12 09:40:53;;;;;;;;;;;22.00;56.40;;;;;;5094515;28;1088;-36
2022/03/12 09:43:20;;;;;;;;;;;22.00;56.20;;;;;;5095310;28;976;-39
2022/03/12 09:45:46;;;;;;;;;;;22.00;56.20;;;;;;5097766;28;1130;-36
2022/03/12 09:48:14;;;;;;;;;;;22.00;56.30;;;;;;5094399;28;1039;-35
2022/03/12 09:50:41;;;;;;;;;;;22.10;56.00;;;;;;5096321;28;941;-35
2022/03/12 09:53:09;;;;;;;;;;;22.10;56.20;;;;;;5095539;28;942;-36
2022/03/12 09:55:36;;;;;;;;;;;22.10;56.20;;;;;;5095597;28;1027;-35
2022/03/12 09:58:03;;;;;;;;;;;22.00;56.20;;;;;;5093333;28;1898;-36
2022/03/12 10:00:29;;;;;;;;;;;22.10;56.00;;;;;;5094132;28;928;-36
2022/03/12 10:02:56;;;;;;;;;;;22.10;56.40;;;;;;5096151;28;995;-35
2022/03/12 10:05:23;;;;;;;;;;;22.10;56.30;;;;;;5096289;28;982;-36
2022/03/12 10:07:50;;;;;;;;;;;22.10;56.10;;;;;;5095727;28;1770;-36
2022/03/12 10:10:19;;;;;;;;;;;22.10;56.20;;;;;;5096300;28;1011;-36
2022/03/12 10:12:46;;;;;;;;;;;22.10;56.20;;;;;;5095703;28;1000;-35
2022/03/12 10:15:14;;;;;;;;;;;22.10;56.20;;;;;;5095894;28;1012;-35
2022/03/12 10:17:41;;;;;;;;;;;22.10;56.10;;;;;;5096263;28;1902;-35
2022/03/12 10:20:11;;;;;;;;;;;22.10;56.00;;;;;;5097161;28;931;-36
2022/03/12 10:22:38;;;;;;;;;;;22.10;56.00;;;;;;5097055;28;1015;-41
2022/03/12 10:25:05;;;;;;;;;;;22.10;56.20;;;;;;5097108;28;971;-35
2022/03/12 10:27:34;;;;;;;;;;;22.10;56.10;;;;;;5097126;28;948;-35
2022/03/12 10:30:01;;;;;;;;;;;22.10;56.10;;;;;;5096306;28;949;-35
2022/03/12 10:32:30;;;;;;;;;;;22.20;56.10;;;;;;5096471;28;760;-34
2022/03/12 10:34:59;;;;;;;;;;;22.20;56.00;;;;;;5096687;28;928;-36
2022/03/12 10:37:27;;;;;;;;;;;22.20;55.80;;;;;;5095528;28;1934;-35
2022/03/12 10:40:03;;;;;;;;;;;22.20;55.90;;;;;;5095940;28;1001;-35
2022/03/12 10:42:30;;;;;;;;;;;22.20;55.60;;;;;;5097116;28;1090;-35
2022/03/12 10:45:05;;;;;;;;;;;22.20;56.30;;;;;;5095670;28;1039;-36
2022/03/12 10:47:36;;;;;;;;;;;22.30;55.90;;;;;;5093169;28;1132;-35
2022/03/12 10:50:05;;;;;;;;;;;22.30;55.80;;;;;;5095652;28;1003;-35
2022/03/12 10:52:34;;;;;;;;;;;22.30;55.90;;;;;;5095967;28;1047;-35
2022/03/12 10:55:07;;;;;;;;;;;22.30;56.00;;;;;;5095486;28;1004;-35
2022/03/12 10:57:34;;;;;;;;;;;22.30;56.20;;;;;;5094277;28;1917;-35
2022/03/12 11:00:01;;;;;;;;;;;22.30;56.00;;;;;;5094113;28;982;-36
2022/03/12 11:02:29;;;;;;;;;;;22.30;55.90;;;;;;5096094;28;1027;-35
2022/03/12 11:05:02;;;;;;;;;;;22.30;55.80;;;;;;5095119;28;991;-35
2022/03/12 11:07:30;;;;;;;;;;;22.30;55.90;;;;;;5095984;28;1004;-34
2022/03/12 11:09:57;;;;;;;;;;;22.30;55.70;;;;;;5095478;28;941;-35
2022/03/12 11:12:29;;;;;;;;;;;22.30;55.80;;;;;;5095958;28;999;-34
2022/03/12 11:15:05;;;;;;;;;;;22.30;55.90;;;;;;5097114;28;893;-35
2022/03/12 11:17:43;;;;;;;;;;;22.30;55.50;;;;;;5099021;28;1902;-34
2022/03/12 11:20:13;;;;;;;;;;;22.30;55.90;;;;;;5100381;28;1036;-35
2022/03/12 11:22:40;;;;;;;;;;;22.30;55.70;;;;;;5098644;28;924;-35
2022/03/12 11:25:10;;;;;;;;;;;22.30;55.80;;;;;;5098327;28;912;-36
2022/03/12 11:27:37;;;;;;;;;;;22.30;55.80;;;;;;5097657;28;952;-36
2022/03/12 11:30:08;;;;;;;;;;;22.30;55.90;;;;;;5096534;28;1019;-35
2022/03/12 11:32:36;;;;;;;;;;;22.30;56.00;;;;;;5097837;28;944;-36
2022/03/12 11:35:10;;;;;;;;;;;22.30;55.90;;;;;;5096613;28;1011;-35
2022/03/12 11:37:38;;;;;;;;;;;22.30;55.90;;;;;;5097357;28;1972;-36
2022/03/12 11:40:09;;;;;;;;;;;22.30;55.90;;;;;;5096952;28;992;-34
2022/03/12 11:42:36;;;;;;;;;;;22.30;55.90;;;;;;5097546;28;1003;-34
2022/03/12 11:45:05;;;;;;;;;;;22.30;55.70;;;;;;5098111;28;991;-34
2022/03/12 11:47:32;;;;;;;;;;;22.30;55.80;;;;;;5095055;28;1011;-34
2022/03/12 11:50:01;;;;;;;;;;;22.30;55.70;;;;;;5096252;28;1004;-34
2022/03/12 11:52:30;;;;;;;;;;;22.30;55.70;;;;;;5096927;28;1004;-34
2022/03/12 11:54:57;;;;;;;;;;;22.30;55.80;;;;;;5095719;28;952;-35
2022/03/12 11:57:26;;;;;;;;;;;22.30;55.90;;;;;;5096457;28;937;-36
2022/03/12 11:59:53;;;;;;;;;;;22.30;55.70;;;;;;5095510;28;908;-34
2022/03/12 12:02:29;;;;;;;;;;;22.30;55.80;;;;;;5096981;28;1075;-36
2022/03/12 12:04:58;;;;;;;;;;;22.30;55.70;;;;;;5095833;28;905;-35
2022/03/12 12:07:25;;;;;;;;;;;22.30;55.80;;;;;;5097033;28;1016;-35
2022/03/12 12:09:54;;;;;;;;;;;22.40;55.90;;;;;;5097383;28;991;-35
2022/03/12 12:12:27;;;;;;;;;;;22.30;55.90;;;;;;5097338;28;1043;-35
2022/03/12 12:14:57;;;;;;;;;;;22.30;55.80;;;;;;5095862;28;1015;-35
2022/03/12 12:17:25;;;;;;;;;;;22.30;55.80;;;;;;5095943;28;940;-35
2022/03/12 12:19:52;;;;;;;;;;;22.40;55.70;;;;;;5098024;28;1906;-34
2022/03/12 12:22:19;;;;;;;;;;;22.30;55.80;;;;;;5097892;28;984;-35
2022/03/12 12:24:46;;;;;;;;;;;22.40;55.90;;;;;;5098375;28;981;-35
2022/03/12 12:27:15;;;;;;;;;;;22.40;55.70;;;;;;5098311;28;1008;-35
2022/03/12 12:29:48;;;;;;;;;;;22.40;55.80;;;;;;5098167;28;1073;-35
2022/03/12 12:32:16;;;;;;;;;;;22.40;55.40;;;;;;5097985;28;1024;-35
2022/03/12 12:35:13;;;;;;;;;;;22.40;55.50;;;;;;5096833;28;1033;-36
2022/03/12 12:37:54;;;;;;;;;;;22.40;55.40;;;;;;5013655;28;1902;-35
2022/03/12 12:40:31;;;;;;;;;;;22.40;55.50;;;;;;5084800;28;1024;-35
2022/03/12 12:43:01;;;;;;;;;;;22.40;55.50;;;;;;5095546;28;937;-35
2022/03/12 12:45:29;;;;;;;;;;;22.40;55.80;;;;;;5096305;28;992;-35
2022/03/12 12:48:10;;;;;;;;;;;22.40;55.80;;;;;;5094282;28;1039;-36
2022/03/12 12:50:37;;;;;;;;;;;22.40;55.70;;;;;;5094893;28;1015;-35
2022/03/12 12:53:14;;;;;;;;;;;22.40;55.90;;;;;;5095557;28;1038;-33
2022/03/12 12:55:42;;;;;;;;;;;22.30;55.70;;;;;;5096998;28;956;-35
2022/03/12 12:58:10;;;;;;;;;;;22.30;55.90;;;;;;5096064;28;1898;-36
2022/03/12 13:00:40;;;;;;;;;;;22.30;55.80;;;;;;5096564;28;988;-35
2022/03/12 13:03:18;;;;;;;;;;;22.40;55.80;;;;;;5094467;28;1011;-35
2022/03/12 13:05:46;;;;;;;;;;;22.40;55.70;;;;;;5096307;28;999;-36
2022/03/12 13:08:13;;;;;;;;;;;22.40;55.90;;;;;;5094175;28;944;-34
2022/03/12 13:10:41;;;;;;;;;;;22.40;56.00;;;;;;5094657;28;1000;-34
2022/03/12 13:13:09;;;;;;;;;;;22.40;55.70;;;;;;5094838;28;2260;-34
2022/03/12 13:15:41;;;;;;;;;;;22.40;55.90;;;;;;5094941;28;993;-35
2022/03/12 13:18:32;;;;;;;;;;;22.40;55.60;;;;;;5094720;28;1980;-34
2022/03/12 13:20:59;;;;;;;;;;;22.40;55.80;;;;;;5093719;28;1722;-34
2022/03/12 13:23:28;;;;;;;;;;;22.40;55.80;;;;;;5094270;28;1008;-36
2022/03/12 13:25:57;;;;;;;;;;;22.40;55.80;;;;;;5094617;28;960;-35
2022/03/12 13:28:39;;;;;;;;;;;22.40;55.70;;;;;;5093836;28;956;-35
2022/03/12 13:31:16;;;;;;;;;;;22.40;55.40;;;;;;5093760;28;932;-35
2022/03/12 13:33:43;;;;;;;;;;;22.40;55.40;;;;;;5093290;28;1016;-35
2022/03/12 13:36:18;;;;;;;;;;;22.40;55.70;;;;;;5093971;28;1019;-35
2022/03/12 13:38:45;;;;;;;;;;;22.40;55.70;;;;;;5092810;28;1949;-34
2022/03/12 13:41:13;;;;;;;;;;;22.40;55.70;;;;;;5094167;28;1000;-34
2022/03/12 13:43:41;;;;;;;;;;;22.40;55.80;;;;;;5094121;28;881;-35
2022/03/12 13:46:08;;;;;;;;;;;22.40;55.80;;;;;;5094916;28;1003;-35
2022/03/12 13:48:36;;;;;;;;;;;22.40;55.60;;;;;;5093579;28;1062;-35
2022/03/12 13:51:03;;;;;;;;;;;22.50;55.70;;;;;;5093519;28;1026;-36
2022/03/12 13:53:30;;;;;;;;;;;22.50;55.60;;;;;;5092865;28;969;-34
2022/03/12 13:56:04;;;;;;;;;;;22.50;55.70;;;;;;5093147;28;993;-34
2022/03/12 13:58:31;;;;;;;;;;;22.40;55.50;;;;;;5092855;28;1970;-33
2022/03/12 14:01:00;;;;;;;;;;;22.50;55.60;;;;;;5093490;28;1154;-35
2022/03/12 14:03:30;;;;;;;;;;;22.50;55.40;;;;;;5092568;28;976;-43
2022/03/12 14:05:58;;;;;;;;;;;22.50;55.30;;;;;;5093706;28;992;-34
2022/03/12 14:08:29;;;;;;;;;;;22.50;55.60;;;;;;5094478;28;975;-33
2022/03/12 14:10:55;;;;;;;;;;;22.50;55.40;;;;;;5094244;28;972;-36
2022/03/12 14:13:22;;;;;;;;;;;22.50;55.50;;;;;;5095123;28;992;-35
2022/03/12 14:15:49;;;;;;;;;;;22.50;55.60;;;;;;5095106;28;1000;-34
2022/03/12 14:18:23;;;;;;;;;;;22.50;55.60;;;;;;5093763;28;1941;-35
2022/03/12 14:20:49;;;;;;;;;;;22.50;55.40;;;;;;5095016;28;940;-34
2022/03/12 14:23:22;;;;;;;;;;;22.50;55.40;;;;;;5096986;28;896;-38
2022/03/12 14:25:50;;;;;;;;;;;22.60;55.20;;;;;;5096678;28;1117;-34
2022/03/12 14:28:17;;;;;;;;;;;22.60;55.10;;;;;;5097609;28;1468;-36
2022/03/12 14:30:43;;;;;;;;;;;22.60;55.00;;;;;;5096931;28;956;-35
2022/03/12 14:33:12;;;;;;;;;;;22.60;55.10;;;;;;5097730;28;892;-35
2022/03/12 14:35:39;;;;;;;;;;;22.70;54.70;;;;;;5097028;28;1026;-36
2022/03/12 14:38:06;;;;;;;;;;;22.70;54.70;;;;;;5097261;28;1063;-34
2022/03/12 14:40:35;;;;;;;;;;;22.70;54.70;;;;;;5095585;28;1902;-35
2022/03/12 14:43:02;;;;;;;;;;;22.70;54.70;;;;;;5094947;28;941;-35
2022/03/12 14:45:29;;;;;;;;;;;22.80;54.40;;;;;;5095999;28;1015;-34